Vliegveldwaarnemingen Nederland - (AUTO) METAR

Luchtvaartmeteorologische informatie voor operationeel gebruik en vluchtvoorbereiding is beschikbaar op www.luchtvaartmeteo.nl.

ZCZC
SA181525 EHKD     DE KOOY/DE KOOY   NLD   1 m.
METAR EHKD 181525Z AUTO 30014KT 250V320 9999 FEW028 BKN060 08/02
Q1019
BLU 29016KT 9999 FEW025 SCT050 TEMPO 31018G28KT SCT018CB BKN040=

ZCZC
SA181525 EHFD     F3-FB-1   NLD   50 m.
METAR EHFD 181525Z AUTO 31028KT 9999 FEW024/// 06/02 Q1016 W///H///=

ZCZC
SA181525 EHAM     AMSTERDAM/SCHIPHOL   NLD   -3 m.
METAR EHAM 181525Z 29014KT 260V320 9999 FEW028 08/01 Q1020 NOSIG=

ZCZC
SA181525 EHVL     VLIELAND   NLD   10 m.
METAR EHVL 181525Z AUTO 30018KT 9999 OVC055 07/02 Q1018 BLU=

ZCZC
SA181525 EHJR     K13-A   NLD   37 m.
METAR EHJR 181525Z AUTO 30013KT //// // ///////// 07/02 Q1020 RE//
W07/H34=

ZCZC
SA181525 EHLW     LEEUWARDEN/LEEUWARDEN   NLD   1 m.
METAR EHLW 181525Z AUTO 29016KT 270V330 9999 FEW025 SCT029 08/03
Q1018
BLU 30018KT 9999 SCT025 SCT055 TEMPO 31018G30KT 4000 SHRAGS SCT015CB
SCT020 RMK R23=

ZCZC
SA181525 EHDL     ARNHEM/DEELEN   NLD   48 m.
METAR EHDL 181525Z AUTO 28010KT 240V360 9999 OVC072 08/M01 Q1019 BLU=

ZCZC
SA181525 EHGG     GRONINGEN/EELDE   NLD   5 m.
METAR EHGG 181525Z AUTO 31014KT 270V340 9999 FEW030 07/00 Q1017
NOSIG=

ZCZC
SA181525 EHSC     LICHTEILAND GOEREE   NLD   22 m.
METAR EHSC 181525Z AUTO 31013KT 9999 ///////// 07/01 Q1020 W09/H16=

ZCZC
SA181525 EHSA     EURO PLATFORM   NLD   19 m.
METAR EHSA 181525Z AUTO 29010KT 9999 ///////// 08/M00 Q1021 W06/H17=

ZCZC
SA181525 EHWO     WOENSDRECHT/WOENSDRECHT   NLD   19 m.
METAR EHWO 181525Z AUTO 28013KT 240V360 9999 NCD 09/M01 Q1020 BLU=

ZCZC
SA181525 EHRD     ROTTERDAM/THE HAGUE AIRPORT   NLD   -5 m.
METAR EHRD 181525Z AUTO 31011KT 280V350 9999 FEW042 08/M00 Q1020
NOSIG=

ZCZC
SA181525 EHGR     GILZE-RIJEN/GILZE-RIJEN   NLD   14 m.
METAR EHGR 181525Z AUTO 28013KT 250V310 9999 NCD 09/M02 Q1020
BLU 30013KT 9999 FEW025 SCT050=

ZCZC
SA181525 EHEH     EINDHOVEN/EINDHOVEN   NLD   22 m.
METAR EHEH 181525Z AUTO 31009KT 230V330 9999 FEW067 09/M00 Q1020
BLU 28010KT 9999 FEW030 SCT050 TEMPO 31012G22KT SCT025CB BKN050=

ZCZC
SA181525 EHVK     VOLKEL/VOLKEL   NLD   21 m.
METAR EHVK 181525Z AUTO 30009KT 260V350 9999 FEW034 SCT070 08/M00
Q1019 BLU=

ZCZC
SA181525 EHBK     MAASTRICHT/MAASTRICHT-AACHEN   NLD   114 m.
METAR EHBK 181525Z AUTO 30008KT 240V350 9999 NCD 09/M03 Q1019 NOSIG=

ZCZC
SA181525 EHFZ     F16-A   NLD   43 m.
METAR EHFZ 181525Z AUTO 29022KT 9999 FEW025 07/03 Q1018 W///H///=

ZCZC
SA181525 EHKV     K14-FA-1C   NLD   41 m.
METAR EHKV 181525Z AUTO VRB13KT 9999 NSC 07/02 Q//// W///H///=

ZCZC
SA181525 EHMG     L9-FF-1   NLD   44 m.
METAR EHMG 181525Z AUTO 29020KT 9999 NCD 07/02 Q1018 W///H///=

ZCZC
SA181525 EHMA     AWG-1   NLD   40 m.
METAR EHMA 181525Z AUTO 29023KT 9999 FEW023 07/02 Q1017 W///H///=

ZCZC
SA181525 EHDV     D15-FA-1   NLD   42 m.
METAR EHDV 181525Z AUTO 32016KT 9999 FEW024/// BKN044/// 06/02 Q1018
W///H///=

ZCZC
SA181525 EHAK     A12-CPP   NLD   48 m.
METAR EHAK 181525Z AUTO 34027KT 9999 FEW022/// SCT026/// BKN037///
06/02 Q1016 W///H///=

ZCZC
SA181525 EHQE     HOORN-A   NLD   50 m.
METAR EHQE 181525Z AUTO 30020KT 9999 FEW025 07/01 Q1019 W///H///=

ZCZC
SA181525 EHJA     J6-A   NLD   45 m.
METAR EHJA 181525Z AUTO 29017KT //// // ///////// 07/01 Q1019 RE//
W///H///=

ZCZC
SA181525 EHPG     P11-B   NLD   41 m.
METAR EHPG 181525Z AUTO VRB09KT 9999 NCD 08/M02 Q1020 W///H///=

ZCZC
SA181525 EHHW     BUITENGAATS/BG-OHVS2      42 m.
METAR EHHW 181525Z AUTO 33022KT 9999 FEW022/// 07/02 Q1016 W///H///=

ZCZC
SA181525 EHFS     VLISSINGEN AWS   NLD   8 m.
METAR EHFS 181525Z AUTO 29013KT 260V320 9999 NCD 09/03 Q1021
W///H///=

18/03/2019 16.45 uur LT